sensor_id;sensor_type;location;lat;lon;timestamp;P1;durP1;ratioP1;P2;durP2;ratioP2
13487;SDS011;6816;48.506;9.050;2024-03-02T00:02:18;3.00;;;2.37;;
13487;SDS011;6816;48.506;9.050;2024-03-02T00:05:20;2.60;;;2.40;;
13487;SDS011;6816;48.506;9.050;2024-03-02T00:08:22;2.90;;;2.50;;
13487;SDS011;6816;48.506;9.050;2024-03-02T00:11:25;3.43;;;2.70;;
13487;SDS011;6816;48.506;9.050;2024-03-02T00:14:30;3.07;;;2.60;;
13487;SDS011;6816;48.506;9.050;2024-03-02T00:17:30;3.30;;;2.77;;
13487;SDS011;6816;48.506;9.050;2024-03-02T00:20:31;3.90;;;3.00;;
13487;SDS011;6816;48.506;9.050;2024-03-02T00:23:32;3.40;;;3.07;;
13487;SDS011;6816;48.506;9.050;2024-03-02T00:26:35;3.97;;;2.60;;
13487;SDS011;6816;48.506;9.050;2024-03-02T00:29:35;3.20;;;2.80;;
13487;SDS011;6816;48.506;9.050;2024-03-02T00:32:36;3.87;;;3.00;;
13487;SDS011;6816;48.506;9.050;2024-03-02T00:35:36;3.47;;;2.90;;
13487;SDS011;6816;48.506;9.050;2024-03-02T00:38:44;3.10;;;2.80;;
13487;SDS011;6816;48.506;9.050;2024-03-02T00:41:47;4.20;;;3.00;;
13487;SDS011;6816;48.506;9.050;2024-03-02T00:44:48;3.90;;;3.13;;
13487;SDS011;6816;48.506;9.050;2024-03-02T00:47:49;3.53;;;3.10;;
13487;SDS011;6816;48.506;9.050;2024-03-02T00:50:51;3.50;;;3.00;;
13487;SDS011;6816;48.506;9.050;2024-03-02T00:53:53;3.33;;;2.83;;
13487;SDS011;6816;48.506;9.050;2024-03-02T00:56:58;4.10;;;3.30;;
13487;SDS011;6816;48.506;9.050;2024-03-02T00:59:59;4.47;;;3.03;;
13487;SDS011;6816;48.506;9.050;2024-03-02T01:02:59;4.00;;;3.30;;
13487;SDS011;6816;48.506;9.050;2024-03-02T01:06:00;5.50;;;3.33;;
13487;SDS011;6816;48.506;9.050;2024-03-02T01:09:01;4.53;;;2.93;;
13487;SDS011;6816;48.506;9.050;2024-03-02T01:12:02;3.83;;;3.33;;
13487;SDS011;6816;48.506;9.050;2024-03-02T01:15:03;4.00;;;3.23;;
13487;SDS011;6816;48.506;9.050;2024-03-02T01:18:06;5.87;;;3.30;;
13487;SDS011;6816;48.506;9.050;2024-03-02T01:21:07;4.90;;;3.20;;
13487;SDS011;6816;48.506;9.050;2024-03-02T01:24:08;5.37;;;3.27;;
13487;SDS011;6816;48.506;9.050;2024-03-02T01:27:09;9.43;;;3.10;;
13487;SDS011;6816;48.506;9.050;2024-03-02T01:30:09;13.57;;;3.03;;
13487;SDS011;6816;48.506;9.050;2024-03-02T01:33:11;5.13;;;3.00;;
13487;SDS011;6816;48.506;9.050;2024-03-02T01:36:12;3.30;;;3.00;;
13487;SDS011;6816;48.506;9.050;2024-03-02T01:39:12;3.70;;;2.87;;
13487;SDS011;6816;48.506;9.050;2024-03-02T01:42:13;3.33;;;2.60;;
13487;SDS011;6816;48.506;9.050;2024-03-02T01:45:13;3.43;;;3.13;;
13487;SDS011;6816;48.506;9.050;2024-03-02T01:48:14;3.57;;;2.87;;
13487;SDS011;6816;48.506;9.050;2024-03-02T01:51:15;3.50;;;2.50;;
13487;SDS011;6816;48.506;9.050;2024-03-02T01:54:16;3.47;;;2.87;;
13487;SDS011;6816;48.506;9.050;2024-03-02T01:57:16;3.73;;;3.03;;
13487;SDS011;6816;48.506;9.050;2024-03-02T02:00:18;3.20;;;2.70;;
13487;SDS011;6816;48.506;9.050;2024-03-02T02:03:20;2.70;;;2.40;;
13487;SDS011;6816;48.506;9.050;2024-03-02T02:06:20;3.40;;;2.77;;
13487;SDS011;6816;48.506;9.050;2024-03-02T02:09:21;3.67;;;2.67;;
13487;SDS011;6816;48.506;9.050;2024-03-02T02:12:22;3.23;;;2.70;;
13487;SDS011;6816;48.506;9.050;2024-03-02T02:18:23;3.10;;;2.80;;
13487;SDS011;6816;48.506;9.050;2024-03-02T02:21:24;3.67;;;2.43;;
13487;SDS011;6816;48.506;9.050;2024-03-02T02:24:26;3.43;;;2.73;;
13487;SDS011;6816;48.506;9.050;2024-03-02T02:27:26;3.77;;;2.47;;
13487;SDS011;6816;48.506;9.050;2024-03-02T02:30:30;2.83;;;2.47;;
13487;SDS011;6816;48.506;9.050;2024-03-02T02:33:32;4.97;;;2.77;;
13487;SDS011;6816;48.506;9.050;2024-03-02T02:36:33;4.07;;;3.13;;
13487;SDS011;6816;48.506;9.050;2024-03-02T02:39:34;3.60;;;3.13;;
13487;SDS011;6816;48.506;9.050;2024-03-02T02:42:34;4.30;;;3.50;;
13487;SDS011;6816;48.506;9.050;2024-03-02T02:45:35;5.67;;;3.27;;
13487;SDS011;6816;48.506;9.050;2024-03-02T02:48:36;3.93;;;3.17;;
13487;SDS011;6816;48.506;9.050;2024-03-02T02:51:36;3.67;;;3.17;;
13487;SDS011;6816;48.506;9.050;2024-03-02T02:54:37;3.73;;;3.20;;
13487;SDS011;6816;48.506;9.050;2024-03-02T02:57:41;4.47;;;3.47;;
13487;SDS011;6816;48.506;9.050;2024-03-02T03:00:42;4.43;;;3.70;;
13487;SDS011;6816;48.506;9.050;2024-03-02T03:03:46;4.20;;;3.47;;
13487;SDS011;6816;48.506;9.050;2024-03-02T03:06:47;5.07;;;3.80;;
13487;SDS011;6816;48.506;9.050;2024-03-02T03:09:47;6.00;;;3.53;;
13487;SDS011;6816;48.506;9.050;2024-03-02T03:12:48;5.80;;;3.20;;
13487;SDS011;6816;48.506;9.050;2024-03-02T03:15:49;3.73;;;2.87;;
13487;SDS011;6816;48.506;9.050;2024-03-02T03:18:49;2.90;;;2.60;;
13487;SDS011;6816;48.506;9.050;2024-03-02T03:21:51;3.23;;;2.73;;
13487;SDS011;6816;48.506;9.050;2024-03-02T03:24:52;3.07;;;2.60;;
13487;SDS011;6816;48.506;9.050;2024-03-02T03:27:53;3.50;;;2.73;;
13487;SDS011;6816;48.506;9.050;2024-03-02T03:30:53;3.60;;;2.70;;
13487;SDS011;6816;48.506;9.050;2024-03-02T03:33:54;3.20;;;2.90;;
13487;SDS011;6816;48.506;9.050;2024-03-02T03:36:55;4.17;;;2.90;;
13487;SDS011;6816;48.506;9.050;2024-03-02T03:39:55;4.27;;;2.90;;
13487;SDS011;6816;48.506;9.050;2024-03-02T03:42:56;3.60;;;2.93;;
13487;SDS011;6816;48.506;9.050;2024-03-02T03:45:57;3.97;;;3.00;;
13487;SDS011;6816;48.506;9.050;2024-03-02T03:48:57;4.13;;;3.27;;
13487;SDS011;6816;48.506;9.050;2024-03-02T03:51:58;3.97;;;2.97;;
13487;SDS011;6816;48.506;9.050;2024-03-02T03:54:59;6.03;;;2.70;;
13487;SDS011;6816;48.506;9.050;2024-03-02T03:58:00;3.83;;;3.10;;
13487;SDS011;6816;48.506;9.050;2024-03-02T04:01:01;3.67;;;3.17;;
13487;SDS011;6816;48.506;9.050;2024-03-02T04:04:01;3.37;;;2.67;;
13487;SDS011;6816;48.506;9.050;2024-03-02T04:07:03;3.57;;;2.80;;
13487;SDS011;6816;48.506;9.050;2024-03-02T04:10:04;3.07;;;2.53;;
13487;SDS011;6816;48.506;9.050;2024-03-02T04:13:08;4.83;;;2.77;;
13487;SDS011;6816;48.506;9.050;2024-03-02T04:16:08;5.20;;;3.10;;
13487;SDS011;6816;48.506;9.050;2024-03-02T04:19:09;13.40;;;3.43;;
13487;SDS011;6816;48.506;9.050;2024-03-02T04:22:09;4.27;;;2.87;;
13487;SDS011;6816;48.506;9.050;2024-03-02T04:25:10;9.10;;;2.90;;
13487;SDS011;6816;48.506;9.050;2024-03-02T04:28:11;8.33;;;3.47;;
13487;SDS011;6816;48.506;9.050;2024-03-02T04:35:10;4.60;;;3.70;;
13487;SDS011;6816;48.506;9.050;2024-03-02T04:38:10;5.10;;;3.67;;
13487;SDS011;6816;48.506;9.050;2024-03-02T04:41:11;6.87;;;4.17;;
13487;SDS011;6816;48.506;9.050;2024-03-02T04:44:12;8.07;;;4.17;;
13487;SDS011;6816;48.506;9.050;2024-03-02T04:47:12;6.60;;;4.27;;
13487;SDS011;6816;48.506;9.050;2024-03-02T04:50:13;7.47;;;3.73;;
13487;SDS011;6816;48.506;9.050;2024-03-02T04:53:14;5.63;;;4.30;;
13487;SDS011;6816;48.506;9.050;2024-03-02T04:56:14;5.90;;;3.63;;
13487;SDS011;6816;48.506;9.050;2024-03-02T04:59:33;3.70;;;3.10;;
13487;SDS011;6816;48.506;9.050;2024-03-02T05:02:34;6.50;;;3.03;;
13487;SDS011;6816;48.506;9.050;2024-03-02T05:05:35;3.67;;;3.20;;
13487;SDS011;6816;48.506;9.050;2024-03-02T05:08:37;4.50;;;3.30;;
13487;SDS011;6816;48.506;9.050;2024-03-02T05:11:37;3.77;;;3.33;;
13487;SDS011;6816;48.506;9.050;2024-03-02T05:14:38;3.93;;;3.30;;
13487;SDS011;6816;48.506;9.050;2024-03-02T05:17:39;3.80;;;2.93;;
13487;SDS011;6816;48.506;9.050;2024-03-02T05:20:42;4.77;;;3.10;;
13487;SDS011;6816;48.506;9.050;2024-03-02T05:23:43;4.47;;;3.50;;
13487;SDS011;6816;48.506;9.050;2024-03-02T05:26:44;4.50;;;3.70;;
13487;SDS011;6816;48.506;9.050;2024-03-02T05:29:44;4.20;;;3.43;;
13487;SDS011;6816;48.506;9.050;2024-03-02T05:32:45;8.50;;;3.30;;
13487;SDS011;6816;48.506;9.050;2024-03-02T05:35:46;3.83;;;2.57;;
13487;SDS011;6816;48.506;9.050;2024-03-02T05:38:46;3.93;;;2.83;;
13487;SDS011;6816;48.506;9.050;2024-03-02T05:41:47;12.03;;;2.90;;
13487;SDS011;6816;48.506;9.050;2024-03-02T05:44:48;8.33;;;3.23;;
13487;SDS011;6816;48.506;9.050;2024-03-02T05:47:48;5.97;;;2.63;;
13487;SDS011;6816;48.506;9.050;2024-03-02T05:50:49;6.00;;;2.93;;
13487;SDS011;6816;48.506;9.050;2024-03-02T05:53:50;5.17;;;2.90;;
13487;SDS011;6816;48.506;9.050;2024-03-02T05:56:50;5.37;;;2.77;;
13487;SDS011;6816;48.506;9.050;2024-03-02T05:59:52;15.70;;;3.37;;
13487;SDS011;6816;48.506;9.050;2024-03-02T06:02:54;9.87;;;3.10;;
13487;SDS011;6816;48.506;9.050;2024-03-02T06:05:55;5.30;;;3.33;;
13487;SDS011;6816;48.506;9.050;2024-03-02T06:08:55;8.07;;;2.83;;
13487;SDS011;6816;48.506;9.050;2024-03-02T06:11:56;6.57;;;3.00;;
13487;SDS011;6816;48.506;9.050;2024-03-02T06:14:57;11.30;;;2.97;;
13487;SDS011;6816;48.506;9.050;2024-03-02T06:17:57;5.20;;;3.47;;
13487;SDS011;6816;48.506;9.050;2024-03-02T06:20:58;11.97;;;3.47;;
13487;SDS011;6816;48.506;9.050;2024-03-02T06:23:58;6.80;;;3.00;;
13487;SDS011;6816;48.506;9.050;2024-03-02T06:26:59;14.10;;;3.50;;
13487;SDS011;6816;48.506;9.050;2024-03-02T06:29:59;5.80;;;3.40;;
13487;SDS011;6816;48.506;9.050;2024-03-02T06:33:00;7.70;;;3.00;;
13487;SDS011;6816;48.506;9.050;2024-03-02T06:36:01;6.40;;;3.20;;
13487;SDS011;6816;48.506;9.050;2024-03-02T06:39:02;8.03;;;3.27;;
13487;SDS011;6816;48.506;9.050;2024-03-02T06:42:05;10.70;;;3.83;;
13487;SDS011;6816;48.506;9.050;2024-03-02T06:45:06;14.40;;;3.87;;
13487;SDS011;6816;48.506;9.050;2024-03-02T06:48:07;7.13;;;3.20;;
13487;SDS011;6816;48.506;9.050;2024-03-02T06:51:07;4.47;;;3.30;;
13487;SDS011;6816;48.506;9.050;2024-03-02T06:54:08;10.77;;;4.27;;
13487;SDS011;6816;48.506;9.050;2024-03-02T06:57:08;6.77;;;3.43;;
13487;SDS011;6816;48.506;9.050;2024-03-02T07:00:10;6.23;;;3.30;;
13487;SDS011;6816;48.506;9.050;2024-03-02T07:03:11;7.40;;;3.83;;
13487;SDS011;6816;48.506;9.050;2024-03-02T07:06:12;12.43;;;4.93;;
13487;SDS011;6816;48.506;9.050;2024-03-02T07:09:12;10.83;;;4.07;;
13487;SDS011;6816;48.506;9.050;2024-03-02T07:12:13;5.90;;;4.43;;
13487;SDS011;6816;48.506;9.050;2024-03-02T07:15:14;3.87;;;3.40;;
13487;SDS011;6816;48.506;9.050;2024-03-02T07:18:26;21.00;;;4.73;;
13487;SDS011;6816;48.506;9.050;2024-03-02T07:21:27;10.20;;;4.10;;
13487;SDS011;6816;48.506;9.050;2024-03-02T07:24:28;7.67;;;3.67;;
13487;SDS011;6816;48.506;9.050;2024-03-02T07:27:28;19.87;;;4.63;;
13487;SDS011;6816;48.506;9.050;2024-03-02T07:30:31;12.53;;;4.47;;
13487;SDS011;6816;48.506;9.050;2024-03-02T07:33:32;11.30;;;4.00;;
13487;SDS011;6816;48.506;9.050;2024-03-02T07:36:33;7.97;;;3.53;;
13487;SDS011;6816;48.506;9.050;2024-03-02T07:39:33;5.00;;;3.73;;
13487;SDS011;6816;48.506;9.050;2024-03-02T07:42:34;13.73;;;4.47;;
13487;SDS011;6816;48.506;9.050;2024-03-02T07:45:34;18.03;;;3.97;;
13487;SDS011;6816;48.506;9.050;2024-03-02T07:48:36;12.40;;;4.23;;
13487;SDS011;6816;48.506;9.050;2024-03-02T07:51:37;14.97;;;4.60;;
13487;SDS011;6816;48.506;9.050;2024-03-02T07:54:38;11.47;;;4.50;;
13487;SDS011;6816;48.506;9.050;2024-03-02T07:57:39;13.00;;;4.33;;
13487;SDS011;6816;48.506;9.050;2024-03-02T08:00:40;9.40;;;3.70;;
13487;SDS011;6816;48.506;9.050;2024-03-02T08:03:41;11.13;;;4.43;;
13487;SDS011;6816;48.506;9.050;2024-03-02T08:06:42;6.93;;;3.87;;
13487;SDS011;6816;48.506;9.050;2024-03-02T08:09:43;22.43;;;4.93;;
13487;SDS011;6816;48.506;9.050;2024-03-02T08:12:43;14.30;;;4.70;;
13487;SDS011;6816;48.506;9.050;2024-03-02T08:15:44;21.30;;;4.23;;
13487;SDS011;6816;48.506;9.050;2024-03-02T08:18:45;20.77;;;4.40;;
13487;SDS011;6816;48.506;9.050;2024-03-02T08:21:49;8.63;;;3.37;;
13487;SDS011;6816;48.506;9.050;2024-03-02T08:24:50;10.70;;;3.60;;
13487;SDS011;6816;48.506;9.050;2024-03-02T08:27:51;5.43;;;3.47;;
13487;SDS011;6816;48.506;9.050;2024-03-02T08:30:52;10.93;;;3.57;;
13487;SDS011;6816;48.506;9.050;2024-03-02T08:33:53;9.87;;;3.77;;
13487;SDS011;6816;48.506;9.050;2024-03-02T08:36:53;7.30;;;3.90;;
13487;SDS011;6816;48.506;9.050;2024-03-02T08:39:54;6.27;;;4.03;;
13487;SDS011;6816;48.506;9.050;2024-03-02T08:42:55;4.87;;;3.90;;
13487;SDS011;6816;48.506;9.050;2024-03-02T08:45:55;6.40;;;3.90;;
13487;SDS011;6816;48.506;9.050;2024-03-02T08:48:56;6.07;;;4.10;;
13487;SDS011;6816;48.506;9.050;2024-03-02T08:51:56;6.10;;;4.73;;
13487;SDS011;6816;48.506;9.050;2024-03-02T08:54:57;6.57;;;4.80;;
13487;SDS011;6816;48.506;9.050;2024-03-02T08:57:58;8.07;;;5.37;;
13487;SDS011;6816;48.506;9.050;2024-03-02T09:00:58;8.67;;;5.00;;
13487;SDS011;6816;48.506;9.050;2024-03-02T09:03:59;5.30;;;4.30;;
13487;SDS011;6816;48.506;9.050;2024-03-02T09:07:00;5.97;;;5.03;;
13487;SDS011;6816;48.506;9.050;2024-03-02T09:10:00;5.37;;;4.80;;
13487;SDS011;6816;48.506;9.050;2024-03-02T09:13:01;6.00;;;4.90;;
13487;SDS011;6816;48.506;9.050;2024-03-02T09:16:01;5.93;;;4.80;;
13487;SDS011;6816;48.506;9.050;2024-03-02T09:19:02;7.10;;;5.50;;
13487;SDS011;6816;48.506;9.050;2024-03-02T09:22:03;5.40;;;4.87;;
13487;SDS011;6816;48.506;9.050;2024-03-02T09:25:05;7.27;;;5.63;;
13487;SDS011;6816;48.506;9.050;2024-03-02T09:28:08;6.57;;;5.30;;
13487;SDS011;6816;48.506;9.050;2024-03-02T09:31:09;7.70;;;6.53;;
13487;SDS011;6816;48.506;9.050;2024-03-02T09:34:10;6.83;;;5.83;;
13487;SDS011;6816;48.506;9.050;2024-03-02T09:37:10;6.73;;;6.03;;
13487;SDS011;6816;48.506;9.050;2024-03-02T09:40:11;6.83;;;5.77;;
13487;SDS011;6816;48.506;9.050;2024-03-02T09:43:13;6.50;;;5.83;;
13487;SDS011;6816;48.506;9.050;2024-03-02T09:46:14;7.73;;;6.07;;
13487;SDS011;6816;48.506;9.050;2024-03-02T09:49:15;6.47;;;5.77;;
13487;SDS011;6816;48.506;9.050;2024-03-02T09:52:16;6.30;;;5.20;;
13487;SDS011;6816;48.506;9.050;2024-03-02T09:55:16;6.03;;;5.40;;
13487;SDS011;6816;48.506;9.050;2024-03-02T09:58:18;6.93;;;5.33;;
13487;SDS011;6816;48.506;9.050;2024-03-02T10:01:19;5.90;;;5.30;;
13487;SDS011;6816;48.506;9.050;2024-03-02T10:04:20;6.30;;;5.30;;
13487;SDS011;6816;48.506;9.050;2024-03-02T10:07:21;5.83;;;5.10;;
13487;SDS011;6816;48.506;9.050;2024-03-02T10:10:22;6.40;;;5.80;;
13487;SDS011;6816;48.506;9.050;2024-03-02T10:13:22;5.80;;;4.67;;
13487;SDS011;6816;48.506;9.050;2024-03-02T10:16:25;5.73;;;4.87;;
13487;SDS011;6816;48.506;9.050;2024-03-02T10:19:25;5.73;;;5.00;;
13487;SDS011;6816;48.506;9.050;2024-03-02T10:22:26;5.23;;;4.70;;
13487;SDS011;6816;48.506;9.050;2024-03-02T10:25:30;5.30;;;4.50;;
13487;SDS011;6816;48.506;9.050;2024-03-02T10:28:33;4.53;;;4.10;;
13487;SDS011;6816;48.506;9.050;2024-03-02T10:31:33;5.03;;;4.53;;
13487;SDS011;6816;48.506;9.050;2024-03-02T10:34:35;4.70;;;4.23;;
13487;SDS011;6816;48.506;9.050;2024-03-02T10:37:38;6.50;;;4.90;;
13487;SDS011;6816;48.506;9.050;2024-03-02T10:40:38;6.80;;;4.33;;
13487;SDS011;6816;48.506;9.050;2024-03-02T10:43:39;5.43;;;4.07;;
13487;SDS011;6816;48.506;9.050;2024-03-02T10:46:40;5.60;;;4.27;;
13487;SDS011;6816;48.506;9.050;2024-03-02T10:49:41;5.43;;;4.27;;
13487;SDS011;6816;48.506;9.050;2024-03-02T10:52:43;7.60;;;4.67;;
13487;SDS011;6816;48.506;9.050;2024-03-02T10:55:44;5.90;;;4.60;;
13487;SDS011;6816;48.506;9.050;2024-03-02T10:58:48;5.13;;;4.17;;
13487;SDS011;6816;48.506;9.050;2024-03-02T11:01:51;4.83;;;3.90;;
13487;SDS011;6816;48.506;9.050;2024-03-02T11:05:00;4.03;;;3.63;;
13487;SDS011;6816;48.506;9.050;2024-03-02T11:08:13;3.83;;;3.50;;
13487;SDS011;6816;48.506;9.050;2024-03-02T11:11:20;3.40;;;3.10;;
13487;SDS011;6816;48.506;9.050;2024-03-02T11:14:25;3.83;;;3.37;;
13487;SDS011;6816;48.506;9.050;2024-03-02T11:17:26;3.43;;;3.13;;
13487;SDS011;6816;48.506;9.050;2024-03-02T11:20:27;3.63;;;3.30;;
13487;SDS011;6816;48.506;9.050;2024-03-02T11:23:33;4.73;;;3.50;;
13487;SDS011;6816;48.506;9.050;2024-03-02T11:26:38;3.00;;;2.70;;
13487;SDS011;6816;48.506;9.050;2024-03-02T11:32:40;2.40;;;2.20;;
13487;SDS011;6816;48.506;9.050;2024-03-02T11:35:41;2.83;;;2.50;;
13487;SDS011;6816;48.506;9.050;2024-03-02T11:38:43;2.70;;;2.50;;
13487;SDS011;6816;48.506;9.050;2024-03-02T11:41:46;2.40;;;2.20;;
13487;SDS011;6816;48.506;9.050;2024-03-02T11:44:47;2.37;;;2.03;;
13487;SDS011;6816;48.506;9.050;2024-03-02T11:47:52;2.83;;;2.40;;
13487;SDS011;6816;48.506;9.050;2024-03-02T11:50:54;1.95;;;1.80;;
13487;SDS011;6816;48.506;9.050;2024-03-02T11:53:59;2.15;;;1.95;;
13487;SDS011;6816;48.506;9.050;2024-03-02T11:57:04;2.42;;;2.22;;
13487;SDS011;6816;48.506;9.050;2024-03-02T12:00:05;2.13;;;1.60;;
13487;SDS011;6816;48.506;9.050;2024-03-02T12:03:06;1.58;;;1.48;;
13487;SDS011;6816;48.506;9.050;2024-03-02T12:06:08;1.40;;;1.30;;
13487;SDS011;6816;48.506;9.050;2024-03-02T12:09:09;1.50;;;1.40;;
13487;SDS011;6816;48.506;9.050;2024-03-02T12:12:14;1.70;;;1.60;;
13487;SDS011;6816;48.506;9.050;2024-03-02T12:15:22;1.30;;;1.20;;
13487;SDS011;6816;48.506;9.050;2024-03-02T12:18:23;1.60;;;1.50;;
13487;SDS011;6816;48.506;9.050;2024-03-02T12:21:25;2.22;;;1.40;;
13487;SDS011;6816;48.506;9.050;2024-03-02T12:24:29;1.50;;;1.40;;
13487;SDS011;6816;48.506;9.050;2024-03-02T12:27:30;1.13;;;1.02;;
13487;SDS011;6816;48.506;9.050;2024-03-02T12:30:31;1.52;;;1.42;;
13487;SDS011;6816;48.506;9.050;2024-03-02T12:33:35;1.83;;;1.42;;
13487;SDS011;6816;48.506;9.050;2024-03-02T12:36:38;1.45;;;1.20;;
13487;SDS011;6816;48.506;9.050;2024-03-02T12:39:44;1.13;;;1.00;;
13487;SDS011;6816;48.506;9.050;2024-03-02T12:42:46;1.08;;;1.00;;
13487;SDS011;6816;48.506;9.050;2024-03-02T12:45:47;0.98;;;0.80;;
13487;SDS011;6816;48.506;9.050;2024-03-02T12:48:47;1.02;;;0.82;;
13487;SDS011;6816;48.506;9.050;2024-03-02T12:51:48;0.80;;;0.80;;
13487;SDS011;6816;48.506;9.050;2024-03-02T12:54:52;0.75;;;0.75;;
13487;SDS011;6816;48.506;9.050;2024-03-02T12:57:57;1.10;;;1.00;;
13487;SDS011;6816;48.506;9.050;2024-03-02T13:01:08;0.95;;;0.95;;
13487;SDS011;6816;48.506;9.050;2024-03-02T13:04:09;1.23;;;1.13;;
13487;SDS011;6816;48.506;9.050;2024-03-02T13:07:10;1.35;;;1.25;;
13487;SDS011;6816;48.506;9.050;2024-03-02T13:10:13;2.90;;;1.20;;
13487;SDS011;6816;48.506;9.050;2024-03-02T13:13:14;1.33;;;1.17;;
13487;SDS011;6816;48.506;9.050;2024-03-02T13:16:15;1.13;;;1.02;;
13487;SDS011;6816;48.506;9.050;2024-03-02T13:19:17;1.58;;;1.38;;
13487;SDS011;6816;48.506;9.050;2024-03-02T13:22:19;1.23;;;1.08;;
13487;SDS011;6816;48.506;9.050;2024-03-02T13:25:20;1.17;;;1.08;;
13487;SDS011;6816;48.506;9.050;2024-03-02T13:28:21;1.50;;;1.40;;
13487;SDS011;6816;48.506;9.050;2024-03-02T13:31:22;1.52;;;1.40;;
13487;SDS011;6816;48.506;9.050;2024-03-02T13:34:22;1.23;;;1.13;;
13487;SDS011;6816;48.506;9.050;2024-03-02T13:37:23;1.30;;;1.20;;
13487;SDS011;6816;48.506;9.050;2024-03-02T13:40:23;1.30;;;1.20;;
13487;SDS011;6816;48.506;9.050;2024-03-02T13:43:24;1.25;;;1.15;;
13487;SDS011;6816;48.506;9.050;2024-03-02T13:46:25;1.90;;;1.05;;
13487;SDS011;6816;48.506;9.050;2024-03-02T13:49:25;1.58;;;1.13;;
13487;SDS011;6816;48.506;9.050;2024-03-02T13:52:33;1.40;;;1.30;;
13487;SDS011;6816;48.506;9.050;2024-03-02T13:55:33;1.20;;;1.10;;
13487;SDS011;6816;48.506;9.050;2024-03-02T13:58:34;1.20;;;1.10;;
13487;SDS011;6816;48.506;9.050;2024-03-02T14:01:35;2.28;;;1.00;;
13487;SDS011;6816;48.506;9.050;2024-03-02T14:04:35;1.23;;;1.00;;
13487;SDS011;6816;48.506;9.050;2024-03-02T14:07:37;1.00;;;1.00;;
13487;SDS011;6816;48.506;9.050;2024-03-02T14:10:38;1.50;;;1.00;;
13487;SDS011;6816;48.506;9.050;2024-03-02T14:13:38;1.13;;;1.00;;
13487;SDS011;6816;48.506;9.050;2024-03-02T14:16:39;0.80;;;0.80;;
13487;SDS011;6816;48.506;9.050;2024-03-02T14:19:40;1.10;;;0.90;;
13487;SDS011;6816;48.506;9.050;2024-03-02T14:22:40;1.05;;;0.90;;
13487;SDS011;6816;48.506;9.050;2024-03-02T14:25:41;0.90;;;0.90;;
13487;SDS011;6816;48.506;9.050;2024-03-02T14:28:41;0.98;;;0.90;;
13487;SDS011;6816;48.506;9.050;2024-03-02T14:31:42;1.30;;;0.90;;
13487;SDS011;6816;48.506;9.050;2024-03-02T14:34:43;0.60;;;0.60;;
13487;SDS011;6816;48.506;9.050;2024-03-02T14:37:46;0.85;;;0.80;;
13487;SDS011;6816;48.506;9.050;2024-03-02T14:40:47;1.95;;;0.80;;
13487;SDS011;6816;48.506;9.050;2024-03-02T14:43:47;0.57;;;0.50;;
13487;SDS011;6816;48.506;9.050;2024-03-02T14:46:49;0.70;;;0.70;;
13487;SDS011;6816;48.506;9.050;2024-03-02T14:49:50;0.80;;;0.70;;
13487;SDS011;6816;48.506;9.050;2024-03-02T14:52:51;0.90;;;0.50;;
13487;SDS011;6816;48.506;9.050;2024-03-02T14:55:52;0.80;;;0.70;;
13487;SDS011;6816;48.506;9.050;2024-03-02T14:58:52;1.13;;;0.60;;
13487;SDS011;6816;48.506;9.050;2024-03-02T15:01:53;0.40;;;0.40;;
13487;SDS011;6816;48.506;9.050;2024-03-02T15:04:54;0.50;;;0.50;;
13487;SDS011;6816;48.506;9.050;2024-03-02T15:07:55;0.50;;;0.50;;
13487;SDS011;6816;48.506;9.050;2024-03-02T15:10:58;0.70;;;0.60;;
13487;SDS011;6816;48.506;9.050;2024-03-02T15:14:00;0.87;;;0.67;;
13487;SDS011;6816;48.506;9.050;2024-03-02T15:17:01;0.80;;;0.60;;
13487;SDS011;6816;48.506;9.050;2024-03-02T15:20:01;0.70;;;0.60;;
13487;SDS011;6816;48.506;9.050;2024-03-02T15:23:04;0.70;;;0.70;;
13487;SDS011;6816;48.506;9.050;2024-03-02T15:26:05;0.90;;;0.73;;
13487;SDS011;6816;48.506;9.050;2024-03-02T15:29:05;0.80;;;0.70;;
13487;SDS011;6816;48.506;9.050;2024-03-02T15:32:06;0.80;;;0.70;;
13487;SDS011;6816;48.506;9.050;2024-03-02T15:35:07;0.80;;;0.80;;
13487;SDS011;6816;48.506;9.050;2024-03-02T15:38:07;1.00;;;0.90;;
13487;SDS011;6816;48.506;9.050;2024-03-02T15:41:11;1.10;;;0.97;;
13487;SDS011;6816;48.506;9.050;2024-03-02T15:44:12;1.63;;;1.00;;
13487;SDS011;6816;48.506;9.050;2024-03-02T15:47:13;1.00;;;0.90;;
13487;SDS011;6816;48.506;9.050;2024-03-02T15:50:14;1.00;;;0.90;;
13487;SDS011;6816;48.506;9.050;2024-03-02T15:53:15;1.37;;;0.90;;
13487;SDS011;6816;48.506;9.050;2024-03-02T15:56:15;1.00;;;0.80;;
13487;SDS011;6816;48.506;9.050;2024-03-02T15:59:16;2.17;;;1.00;;
13487;SDS011;6816;48.506;9.050;2024-03-02T16:02:17;0.63;;;0.60;;
13487;SDS011;6816;48.506;9.050;2024-03-02T16:05:17;0.73;;;0.70;;
13487;SDS011;6816;48.506;9.050;2024-03-02T16:08:20;2.30;;;0.80;;
13487;SDS011;6816;48.506;9.050;2024-03-02T16:11:20;0.60;;;0.60;;
13487;SDS011;6816;48.506;9.050;2024-03-02T16:14:21;0.63;;;0.63;;
13487;SDS011;6816;48.506;9.050;2024-03-02T16:17:22;0.70;;;0.70;;
13487;SDS011;6816;48.506;9.050;2024-03-02T16:20:22;0.50;;;0.50;;
13487;SDS011;6816;48.506;9.050;2024-03-02T16:23:23;0.70;;;0.50;;
13487;SDS011;6816;48.506;9.050;2024-03-02T16:26:24;0.57;;;0.53;;
13487;SDS011;6816;48.506;9.050;2024-03-02T16:29:25;1.43;;;0.80;;
13487;SDS011;6816;48.506;9.050;2024-03-02T16:32:25;1.33;;;0.60;;
13487;SDS011;6816;48.506;9.050;2024-03-02T16:35:26;1.00;;;0.83;;
13487;SDS011;6816;48.506;9.050;2024-03-02T16:38:27;1.43;;;1.07;;
13487;SDS011;6816;48.506;9.050;2024-03-02T16:41:27;5.00;;;3.00;;
13487;SDS011;6816;48.506;9.050;2024-03-02T16:44:29;6.13;;;4.73;;
13487;SDS011;6816;48.506;9.050;2024-03-02T16:47:30;16.67;;;10.33;;
13487;SDS011;6816;48.506;9.050;2024-03-02T16:50:30;13.83;;;8.83;;
13487;SDS011;6816;48.506;9.050;2024-03-02T16:53:31;10.40;;;6.63;;
13487;SDS011;6816;48.506;9.050;2024-03-02T16:56:41;5.60;;;4.80;;
13487;SDS011;6816;48.506;9.050;2024-03-02T16:59:43;5.63;;;3.80;;
13487;SDS011;6816;48.506;9.050;2024-03-02T17:02:43;3.90;;;2.90;;
13487;SDS011;6816;48.506;9.050;2024-03-02T17:05:44;2.93;;;2.60;;
13487;SDS011;6816;48.506;9.050;2024-03-02T17:08:45;2.30;;;2.00;;
13487;SDS011;6816;48.506;9.050;2024-03-02T17:11:45;1.93;;;1.70;;
13487;SDS011;6816;48.506;9.050;2024-03-02T17:14:46;2.10;;;1.73;;
13487;SDS011;6816;48.506;9.050;2024-03-02T17:17:46;2.20;;;2.00;;
13487;SDS011;6816;48.506;9.050;2024-03-02T17:20:47;2.80;;;2.17;;
13487;SDS011;6816;48.506;9.050;2024-03-02T17:23:47;3.10;;;1.90;;
13487;SDS011;6816;48.506;9.050;2024-03-02T17:26:48;2.57;;;2.17;;
13487;SDS011;6816;48.506;9.050;2024-03-02T17:29:49;2.73;;;1.87;;
13487;SDS011;6816;48.506;9.050;2024-03-02T17:32:49;2.27;;;1.83;;
13487;SDS011;6816;48.506;9.050;2024-03-02T17:35:50;3.57;;;2.23;;
13487;SDS011;6816;48.506;9.050;2024-03-02T17:38:51;3.17;;;2.40;;
13487;SDS011;6816;48.506;9.050;2024-03-02T17:41:52;3.10;;;2.80;;
13487;SDS011;6816;48.506;9.050;2024-03-02T17:44:53;3.67;;;3.10;;
13487;SDS011;6816;48.506;9.050;2024-03-02T17:47:54;3.37;;;2.87;;
13487;SDS011;6816;48.506;9.050;2024-03-02T17:50:54;8.07;;;2.90;;
13487;SDS011;6816;48.506;9.050;2024-03-02T17:53:55;3.33;;;2.63;;
13487;SDS011;6816;48.506;9.050;2024-03-02T17:56:56;3.40;;;2.57;;
13487;SDS011;6816;48.506;9.050;2024-03-02T17:59:56;4.20;;;2.80;;
13487;SDS011;6816;48.506;9.050;2024-03-02T18:02:57;3.60;;;3.27;;
13487;SDS011;6816;48.506;9.050;2024-03-02T18:05:57;3.33;;;2.90;;
13487;SDS011;6816;48.506;9.050;2024-03-02T18:08:58;5.57;;;3.07;;
13487;SDS011;6816;48.506;9.050;2024-03-02T18:12:01;3.90;;;3.30;;
13487;SDS011;6816;48.506;9.050;2024-03-02T18:15:01;3.87;;;3.47;;
13487;SDS011;6816;48.506;9.050;2024-03-02T18:18:02;4.83;;;3.60;;
13487;SDS011;6816;48.506;9.050;2024-03-02T18:25:49;5.33;;;4.00;;
13487;SDS011;6816;48.506;9.050;2024-03-02T18:28:50;5.43;;;3.83;;
13487;SDS011;6816;48.506;9.050;2024-03-02T18:31:50;7.47;;;4.27;;
13487;SDS011;6816;48.506;9.050;2024-03-02T18:34:51;6.43;;;4.47;;
13487;SDS011;6816;48.506;9.050;2024-03-02T18:37:51;6.77;;;4.27;;
13487;SDS011;6816;48.506;9.050;2024-03-02T18:40:52;5.10;;;4.60;;
13487;SDS011;6816;48.506;9.050;2024-03-02T18:43:53;5.80;;;4.43;;